createdAt,value
2023-03-23T15:59:19.975Z,90.20
2023-03-23T16:01:48.548Z,90.60
2023-03-23T16:04:19.617Z,90.90
2023-03-23T16:06:48.124Z,90.60
2023-03-23T16:09:18.418Z,90.20
2023-03-23T16:11:46.501Z,90.70
2023-03-23T16:14:14.531Z,90.70
2023-03-23T16:16:48.004Z,91.10
2023-03-23T16:19:21.697Z,91.80
2023-03-23T16:21:49.948Z,92.80
2023-03-23T16:24:18.063Z,93.40
2023-03-23T16:26:46.822Z,95.00
2023-03-23T16:29:33.715Z,94.60
2023-03-23T16:32:07.450Z,94.90
2023-03-23T16:34:37.054Z,94.80
2023-03-23T16:37:07.024Z,94.80
2023-03-23T16:39:35.194Z,95.00
2023-03-23T16:42:03.490Z,95.80
2023-03-23T16:44:31.955Z,95.80
2023-03-23T16:47:00.233Z,95.70
2023-03-23T16:49:28.458Z,95.80
2023-03-23T16:51:58.854Z,95.90
2023-03-23T16:54:26.892Z,96.20
2023-03-23T16:56:55.319Z,96.50
2023-03-23T16:59:24.613Z,96.70
2023-03-23T17:01:52.617Z,96.80
2023-03-23T17:04:20.722Z,97.60
2023-03-23T17:06:49.079Z,97.70
2023-03-23T17:09:19.169Z,98.10
2023-03-23T17:11:47.245Z,98.10
2023-03-23T17:14:15.725Z,98.40
2023-03-23T17:16:44.165Z,99.00
2023-03-23T17:19:14.097Z,99.30
2023-03-23T17:21:42.671Z,99.90
2023-03-23T17:24:11.327Z,99.90
2023-03-23T17:26:42.131Z,99.90
2023-03-23T17:29:10.318Z,99.90
2023-03-23T17:31:38.499Z,99.90
2023-03-23T17:34:07.141Z,99.90
2023-03-23T17:36:35.547Z,99.90
2023-03-23T17:39:04.017Z,99.90
2023-03-23T17:41:32.083Z,99.90
2023-03-23T17:44:02.554Z,99.90
2023-03-23T17:46:31.041Z,99.90
2023-03-23T17:48:59.106Z,99.90
2023-03-23T17:51:27.294Z,99.90
2023-03-23T17:53:55.887Z,99.90
2023-03-23T17:56:24.002Z,99.90
2023-03-23T17:58:52.815Z,99.90
2023-03-23T18:01:24.344Z,99.90
2023-03-23T18:03:52.681Z,99.90
2023-03-23T18:06:21.333Z,99.90
2023-03-23T18:08:49.391Z,99.90
2023-03-23T18:11:18.022Z,99.90
2023-03-23T18:13:46.197Z,99.90
2023-03-23T18:16:14.408Z,99.90
2023-03-23T18:18:43.879Z,99.90
2023-03-23T18:21:12.520Z,99.90
2023-03-23T18:23:49.659Z,99.90
2023-03-23T18:26:27.008Z,99.90
2023-03-23T18:28:55.900Z,99.90
2023-03-23T18:31:24.245Z,99.90
2023-03-23T18:33:55.531Z,99.90
2023-03-23T18:36:26.009Z,99.90
2023-03-23T18:38:57.558Z,99.90
2023-03-23T18:41:26.301Z,99.90
2023-03-23T18:43:56.254Z,99.90
2023-03-23T18:46:26.327Z,99.90
2023-03-23T18:48:56.483Z,99.90
2023-03-23T18:51:26.162Z,99.90
2023-03-23T18:53:54.585Z,99.90
2023-03-23T18:56:22.866Z,99.90
2023-03-23T18:58:53.571Z,99.90
2023-03-23T19:01:22.131Z,99.90
2023-03-23T19:03:50.265Z,99.90
2023-03-23T19:06:22.519Z,99.90
2023-03-23T19:08:52.196Z,99.90
2023-03-23T19:11:21.494Z,99.90
2023-03-23T19:14:00.419Z,99.90
2023-03-23T19:16:31.317Z,99.90
2023-03-23T19:19:02.016Z,99.90
2023-03-23T19:21:32.979Z,99.90
2023-03-23T19:24:01.985Z,99.90
2023-03-23T19:26:34.719Z,99.90
2023-03-23T19:29:25.180Z,99.90
2023-03-23T19:31:53.439Z,99.90
2023-03-23T19:34:21.867Z,99.90
2023-03-23T19:36:59.505Z,99.90
2023-03-23T19:39:32.741Z,99.90
2023-03-23T19:42:01.585Z,99.90
2023-03-23T19:44:29.687Z,99.90
2023-03-23T19:46:57.824Z,99.90
2023-03-23T19:49:26.790Z,99.90
2023-03-23T19:52:07.912Z,99.90
2023-03-23T19:54:41.066Z,99.90
2023-03-23T19:57:10.183Z,99.90
2023-03-23T19:59:38.623Z,99.90
2023-03-23T20:02:07.175Z,99.90
2023-03-23T20:04:36.770Z,99.90
2023-03-23T20:07:07.790Z,99.90
2023-03-23T20:09:36.693Z,99.90
2023-03-23T20:12:05.808Z,99.90
2023-03-23T20:14:34.775Z,99.90
2023-03-23T20:17:03.731Z,99.90
2023-03-23T20:19:34.562Z,99.90
2023-03-23T20:22:05.879Z,99.90
2023-03-23T20:24:33.948Z,99.90
2023-03-23T20:27:03.844Z,99.90
2023-03-23T20:29:33.550Z,99.90
2023-03-23T20:32:05.343Z,99.90
2023-03-23T20:34:33.605Z,99.90
2023-03-23T20:37:02.745Z,99.90
2023-03-23T20:39:34.048Z,99.90
2023-03-23T20:42:06.009Z,99.90
2023-03-23T20:44:35.421Z,99.90
2023-03-23T20:47:04.381Z,99.90
2023-03-23T20:49:33.418Z,99.90
2023-03-23T20:52:02.154Z,99.90
2023-03-23T20:54:31.963Z,99.90
2023-03-23T20:57:00.646Z,99.90
2023-03-23T20:59:29.132Z,99.90
2023-03-23T21:01:58.147Z,99.90
2023-03-23T21:04:28.084Z,99.90
2023-03-23T21:06:56.841Z,99.90
2023-03-23T21:09:26.522Z,99.90
2023-03-23T21:11:57.279Z,99.90
2023-03-23T21:14:26.357Z,99.90
2023-03-23T21:16:54.462Z,99.90
2023-03-23T21:19:23.947Z,99.90
2023-03-23T21:21:57.146Z,99.90
2023-03-23T21:24:28.120Z,99.90
2023-03-23T21:26:59.646Z,99.90
2023-03-23T21:29:28.095Z,99.90
2023-03-23T21:34:28.584Z,99.90
2023-03-23T21:36:57.006Z,99.90
2023-03-23T21:39:26.278Z,99.90
2023-03-23T21:41:54.439Z,99.90
2023-03-23T21:44:24.446Z,99.90
2023-03-23T21:46:54.449Z,99.90
2023-03-23T21:49:22.824Z,99.90
2023-03-23T21:51:50.915Z,99.90
2023-03-23T21:54:20.930Z,99.90
2023-03-23T21:56:49.265Z,99.90
2023-03-23T21:59:17.655Z,99.90
2023-03-23T22:01:52.584Z,99.90
2023-03-23T22:04:21.878Z,99.90
2023-03-23T22:06:51.399Z,99.90
2023-03-23T22:09:19.662Z,99.90
2023-03-23T22:11:47.945Z,99.90
2023-03-23T22:14:16.386Z,99.90
2023-03-23T22:16:44.687Z,99.90
2023-03-23T22:19:15.266Z,99.90
2023-03-23T22:21:43.955Z,99.90
2023-03-23T22:24:12.190Z,99.90
2023-03-23T22:26:40.466Z,99.90
2023-03-23T22:29:11.182Z,99.90
2023-03-23T22:31:42.836Z,99.90
2023-03-23T22:34:13.563Z,99.90
2023-03-23T22:36:42.215Z,99.90
2023-03-23T22:39:11.143Z,99.90
2023-03-23T22:41:41.277Z,99.90
2023-03-23T22:44:13.366Z,99.90
2023-03-23T22:46:42.228Z,99.90
2023-03-23T22:49:10.484Z,99.90
2023-03-23T22:51:40.204Z,99.90
2023-03-23T22:54:08.563Z,99.90
2023-03-23T22:56:38.239Z,99.90
2023-03-23T22:59:06.836Z,99.90
2023-03-23T23:01:37.086Z,99.90
2023-03-23T23:04:06.448Z,99.90
2023-03-23T23:06:35.143Z,99.90
2023-03-23T23:09:05.845Z,99.90
2023-03-23T23:11:34.247Z,99.90
2023-03-23T23:14:02.390Z,99.90
2023-03-23T23:16:31.002Z,99.90
2023-03-23T23:18:59.283Z,99.90
2023-03-23T23:21:29.385Z,99.90
2023-03-23T23:23:58.016Z,99.90
2023-03-23T23:26:27.882Z,99.90
2023-03-23T23:28:55.999Z,99.90
2023-03-23T23:31:27.266Z,99.90
2023-03-23T23:33:56.692Z,99.90
2023-03-23T23:36:28.244Z,99.90
2023-03-23T23:38:56.653Z,99.90
2023-03-23T23:41:25.016Z,99.90
2023-03-23T23:43:54.512Z,99.90
2023-03-23T23:46:22.936Z,99.90
2023-03-23T23:48:51.222Z,99.90
2023-03-23T23:51:19.902Z,99.90
2023-03-23T23:53:53.272Z,99.90
2023-03-23T23:56:22.312Z,99.90
2023-03-23T23:58:50.960Z,99.90
